createdAt,value
2023-07-25T00:00:36.951Z,19.58
2023-07-25T00:03:44.835Z,19.55
2023-07-25T00:06:38.730Z,19.55
2023-07-25T00:09:25.797Z,19.54
2023-07-25T00:12:05.828Z,19.55
2023-07-25T00:14:47.926Z,19.54
2023-07-25T00:17:27.917Z,19.50
2023-07-25T00:20:07.749Z,19.45
2023-07-25T00:22:47.868Z,19.45
2023-07-25T00:25:27.779Z,19.48
2023-07-25T00:28:07.911Z,19.48
2023-07-25T00:30:47.915Z,19.49
2023-07-25T00:33:27.805Z,19.49
2023-07-25T00:36:07.732Z,19.46
2023-07-25T00:38:47.822Z,19.43
2023-07-25T00:41:27.722Z,19.39
2023-07-25T00:44:07.793Z,19.36
2023-07-25T00:46:51.701Z,19.34
2023-07-25T00:49:31.790Z,19.31
2023-07-25T00:52:12.644Z,19.29
2023-07-25T00:54:55.737Z,19.28
2023-07-25T00:57:35.689Z,19.26
2023-07-25T01:00:15.732Z,19.25
2023-07-25T01:02:55.766Z,19.23
2023-07-25T01:05:56.598Z,19.18
2023-07-25T01:08:58.649Z,19.12
2023-07-25T01:11:31.930Z,19.10
2023-07-25T01:14:18.641Z,19.08
2023-07-25T01:16:59.699Z,19.07
2023-07-25T01:19:40.793Z,19.06
2023-07-25T01:22:20.861Z,19.06
2023-07-25T01:25:02.569Z,19.05
2023-07-25T01:27:42.686Z,19.03
2023-07-25T01:30:22.733Z,19.02
2023-07-25T01:33:02.737Z,19.04
2023-07-25T01:35:42.600Z,19.06
2023-07-25T01:38:22.663Z,19.06
2023-07-25T01:41:02.574Z,19.07
2023-07-25T01:43:42.632Z,19.07
2023-07-25T01:46:22.560Z,19.04
2023-07-25T01:49:02.657Z,19.01
2023-07-25T01:51:42.522Z,18.99
2023-07-25T01:54:22.608Z,18.96
2023-07-25T01:57:03.549Z,18.94
2023-07-25T01:59:43.635Z,18.95
2023-07-25T02:02:23.732Z,18.95
2023-07-25T02:05:17.436Z,18.95
2023-07-25T02:08:04.526Z,18.95
2023-07-25T02:10:37.536Z,18.91
2023-07-25T02:13:24.510Z,18.87
2023-07-25T02:15:57.526Z,18.84
2023-07-25T02:18:44.626Z,18.81
2023-07-25T02:21:24.752Z,18.79
2023-07-25T02:24:04.591Z,18.75
2023-07-25T02:26:44.641Z,18.68
2023-07-25T02:29:24.592Z,18.63
2023-07-25T02:32:04.683Z,18.61
2023-07-25T02:34:44.593Z,18.63
2023-07-25T02:37:24.591Z,18.64
2023-07-25T02:40:04.428Z,18.65
2023-07-25T02:42:44.631Z,18.67
2023-07-25T02:45:24.578Z,18.66
2023-07-25T02:48:04.528Z,18.67
2023-07-25T02:50:44.674Z,18.69
2023-07-25T02:53:24.476Z,18.69
2023-07-25T02:56:11.369Z,18.72
2023-07-25T02:58:44.449Z,18.73
2023-07-25T03:01:32.531Z,18.72
2023-07-25T03:04:06.482Z,18.72
2023-07-25T03:06:53.374Z,18.71
2023-07-25T03:09:26.401Z,18.73
2023-07-25T03:12:13.365Z,18.75
2023-07-25T03:14:46.565Z,18.77
2023-07-25T03:17:33.379Z,18.76
2023-07-25T03:20:07.239Z,18.77
2023-07-25T03:22:54.586Z,18.77
2023-07-25T03:25:29.757Z,18.75
2023-07-25T03:28:17.295Z,18.76
2023-07-25T03:30:57.475Z,18.77
2023-07-25T03:33:37.284Z,18.79
2023-07-25T03:36:17.321Z,18.80
2023-07-25T03:38:57.278Z,18.81
2023-07-25T03:41:37.467Z,18.83
2023-07-25T03:44:19.279Z,18.81
2023-07-25T03:46:59.326Z,18.80
2023-07-25T03:49:39.269Z,18.81
2023-07-25T03:52:19.323Z,18.81
2023-07-25T03:54:59.226Z,18.82
2023-07-25T03:57:39.431Z,18.82
2023-07-25T04:00:20.226Z,18.83
2023-07-25T04:03:14.213Z,18.83
2023-07-25T04:06:02.259Z,18.82
2023-07-25T04:08:36.254Z,18.82
2023-07-25T04:11:23.319Z,18.83
2023-07-25T04:13:56.408Z,18.82
2023-07-25T04:16:43.232Z,18.83
2023-07-25T04:19:17.431Z,18.85
2023-07-25T04:22:04.228Z,18.84
2023-07-25T04:24:38.406Z,18.85
2023-07-25T04:27:25.550Z,18.84
2023-07-25T04:29:59.567Z,18.85
2023-07-25T04:32:46.231Z,18.87
2023-07-25T04:35:19.299Z,18.89
2023-07-25T04:38:06.161Z,18.88
2023-07-25T04:40:39.194Z,18.87
2023-07-25T04:43:27.119Z,18.87
2023-07-25T04:46:00.390Z,18.86
2023-07-25T04:48:47.179Z,18.80
2023-07-25T04:51:21.230Z,18.82
2023-07-25T04:54:08.199Z,18.83
2023-07-25T04:56:42.532Z,18.86
2023-07-25T04:59:29.781Z,18.87
2023-07-25T05:02:03.340Z,18.88
2023-07-25T05:04:57.311Z,18.89
2023-07-25T05:07:37.463Z,18.88
2023-07-25T05:10:25.537Z,18.88
2023-07-25T05:13:19.145Z,18.90
2023-07-25T05:16:06.060Z,18.88
2023-07-25T05:18:39.141Z,18.88
2023-07-25T05:21:26.146Z,18.87
2023-07-25T05:24:00.165Z,18.88
2023-07-25T05:26:47.022Z,18.86
2023-07-25T05:29:20.093Z,18.84
2023-07-25T05:32:07.255Z,18.83
2023-07-25T05:34:41.121Z,18.83
2023-07-25T05:37:30.038Z,18.84
2023-07-25T05:40:04.208Z,18.84
2023-07-25T05:42:50.967Z,18.84
2023-07-25T05:45:32.150Z,18.87
2023-07-25T05:48:19.035Z,18.91
2023-07-25T05:50:58.099Z,18.94
2023-07-25T05:53:44.990Z,18.96
2023-07-25T05:56:18.666Z,19.00
2023-07-25T05:59:05.956Z,19.02
2023-07-25T06:01:41.328Z,19.00
2023-07-25T06:04:34.948Z,19.04
2023-07-25T06:07:29.986Z,19.07
2023-07-25T06:10:16.932Z,19.11
2023-07-25T06:12:49.976Z,19.18
2023-07-25T06:15:37.959Z,19.27
2023-07-25T06:18:12.995Z,19.36
2023-07-25T06:20:59.961Z,19.38
2023-07-25T06:23:33.035Z,19.38
2023-07-25T06:26:20.044Z,19.37
2023-07-25T06:28:53.844Z,19.37
2023-07-25T06:31:40.958Z,19.39
2023-07-25T06:34:15.072Z,19.37
2023-07-25T06:37:03.857Z,19.40
2023-07-25T06:39:36.922Z,19.51
2023-07-25T06:42:23.868Z,19.66
2023-07-25T06:44:57.943Z,19.77
2023-07-25T06:47:45.886Z,19.83
2023-07-25T06:50:18.997Z,19.79
2023-07-25T06:53:10.278Z,19.70
2023-07-25T06:55:45.956Z,19.65
2023-07-25T06:58:32.871Z,19.61
2023-07-25T07:01:08.027Z,19.60
2023-07-25T07:03:55.058Z,19.56
2023-07-25T07:06:29.069Z,19.46
2023-07-25T07:09:15.790Z,19.39
2023-07-25T07:11:48.917Z,19.31
2023-07-25T07:14:35.789Z,19.22
2023-07-25T07:17:08.865Z,19.16
2023-07-25T07:19:55.778Z,19.12
2023-07-25T07:22:30.858Z,19.11
2023-07-25T07:25:17.920Z,19.12
2023-07-25T07:27:57.901Z,19.08
2023-07-25T07:30:44.779Z,19.08
2023-07-25T07:33:17.827Z,19.08
2023-07-25T07:36:05.734Z,19.08
2023-07-25T07:38:38.782Z,19.08
2023-07-25T07:41:25.725Z,19.07
2023-07-25T07:43:59.795Z,19.04
2023-07-25T07:46:46.732Z,19.01
2023-07-25T07:49:19.897Z,18.94
2023-07-25T07:52:15.366Z,18.85
2023-07-25T07:54:53.824Z,18.80
2023-07-25T07:57:45.851Z,18.92
2023-07-25T08:00:25.819Z,19.14
2023-07-25T08:03:05.796Z,19.32
2023-07-25T08:05:59.798Z,19.44
2023-07-25T08:08:47.834Z,19.54
2023-07-25T08:11:21.846Z,19.65
2023-07-25T08:14:08.845Z,19.65
2023-07-25T08:16:43.014Z,19.66
2023-07-25T08:19:29.769Z,19.71
2023-07-25T08:22:02.849Z,19.77
2023-07-25T08:24:49.840Z,19.74
2023-07-25T08:27:23.971Z,19.70
2023-07-25T08:30:10.771Z,19.68
2023-07-25T08:32:50.850Z,19.70
2023-07-25T08:35:30.836Z,19.78
2023-07-25T08:38:10.932Z,19.86
2023-07-25T08:40:54.664Z,19.95
2023-07-25T08:43:36.765Z,20.02
2023-07-25T08:46:17.962Z,20.07
2023-07-25T08:49:02.897Z,20.16
2023-07-25T08:51:46.733Z,20.19
2023-07-25T08:54:38.753Z,20.06
2023-07-25T08:57:19.689Z,19.99
2023-07-25T09:00:00.815Z,19.94
2023-07-25T09:02:40.811Z,19.99
2023-07-25T09:05:21.724Z,20.02
2023-07-25T09:08:08.532Z,20.05
2023-07-25T09:10:42.737Z,20.13
2023-07-25T09:13:29.645Z,20.25
2023-07-25T09:16:03.659Z,20.31
2023-07-25T09:18:50.521Z,20.31
2023-07-25T09:21:23.603Z,20.35
2023-07-25T09:24:10.557Z,20.47
2023-07-25T09:26:45.223Z,20.59
2023-07-25T09:29:36.487Z,20.78
2023-07-25T09:32:25.684Z,20.95
2023-07-25T09:35:14.464Z,21.02
2023-07-25T09:37:47.526Z,21.09
2023-07-25T09:40:45.570Z,21.17
2023-07-25T09:43:33.516Z,21.11
2023-07-25T09:46:13.531Z,21.25
2023-07-25T09:48:58.552Z,21.37
2023-07-25T09:51:38.781Z,21.35
2023-07-25T09:54:19.552Z,21.40
2023-07-25T09:56:59.479Z,21.46
2023-07-25T09:59:39.576Z,21.41
2023-07-25T10:02:21.651Z,21.51
2023-07-25T10:05:16.336Z,21.71
2023-07-25T10:08:05.439Z,21.75
2023-07-25T10:10:38.458Z,21.68
2023-07-25T10:13:25.330Z,21.61
2023-07-25T10:16:06.593Z,21.47
2023-07-25T10:19:00.371Z,21.46
2023-07-25T10:21:34.666Z,21.39
2023-07-25T10:24:23.403Z,21.27
2023-07-25T10:27:04.462Z,21.17
2023-07-25T10:29:54.349Z,21.02
2023-07-25T10:32:30.390Z,20.80
2023-07-25T10:35:17.343Z,20.71
2023-07-25T10:37:52.421Z,20.75
2023-07-25T10:40:59.308Z,20.82
2023-07-25T10:43:59.043Z,20.90
2023-07-25T10:46:47.377Z,20.80
2023-07-25T10:49:27.746Z,20.80
2023-07-25T10:52:14.543Z,20.79
2023-07-25T10:55:11.996Z,20.79
2023-07-25T10:58:16.253Z,20.82
2023-07-25T11:00:49.389Z,21.03
2023-07-25T11:03:39.251Z,21.09
2023-07-25T11:06:15.354Z,21.17
2023-07-25T11:09:02.227Z,21.33
2023-07-25T11:11:36.329Z,21.47
2023-07-25T11:14:25.284Z,21.83
2023-07-25T11:17:00.339Z,22.01
2023-07-25T11:19:48.261Z,21.72
2023-07-25T11:22:28.308Z,21.46
2023-07-25T11:25:16.193Z,21.29
2023-07-25T11:27:52.568Z,21.11
2023-07-25T11:30:41.492Z,21.09
2023-07-25T11:33:15.270Z,21.38
2023-07-25T11:36:04.160Z,21.77
2023-07-25T11:38:37.326Z,22.12
2023-07-25T11:41:28.243Z,22.39
2023-07-25T11:44:02.887Z,22.64
2023-07-25T11:46:55.198Z,22.98
2023-07-25T11:49:47.678Z,23.23
2023-07-25T11:52:36.439Z,23.18
2023-07-25T11:55:11.345Z,23.07
2023-07-25T11:57:59.224Z,23.15
2023-07-25T12:00:52.819Z,22.98
2023-07-25T12:03:33.188Z,23.00
2023-07-25T12:06:27.195Z,23.17
2023-07-25T12:09:14.132Z,23.28
2023-07-25T12:11:51.242Z,23.26
2023-07-25T12:14:38.169Z,23.08
2023-07-25T12:17:12.923Z,23.01
2023-07-25T12:20:04.166Z,23.26
2023-07-25T12:22:37.822Z,23.64
2023-07-25T12:25:27.184Z,23.82
2023-07-25T12:28:01.866Z,23.91
2023-07-25T12:30:52.627Z,23.80
2023-07-25T12:33:35.704Z,23.55
2023-07-25T12:36:16.176Z,23.51
2023-07-25T12:38:56.337Z,23.26
2023-07-25T12:41:36.121Z,23.07
2023-07-25T12:44:16.896Z,23.14
2023-07-25T12:46:57.088Z,23.24
2023-07-25T12:49:37.169Z,23.02
2023-07-25T12:52:18.075Z,22.98
2023-07-25T12:54:58.183Z,23.01
2023-07-25T12:57:38.543Z,23.43
2023-07-25T13:00:20.128Z,23.94
2023-07-25T13:03:00.282Z,24.02
2023-07-25T13:05:40.194Z,23.98
2023-07-25T13:08:28.032Z,24.20
2023-07-25T13:11:02.209Z,24.55
2023-07-25T13:13:49.022Z,24.84
2023-07-25T13:16:23.219Z,24.85
2023-07-25T13:19:10.035Z,24.69
2023-07-25T13:21:44.097Z,24.90
2023-07-25T13:24:31.054Z,25.24
2023-07-25T13:27:05.109Z,25.41
2023-07-25T13:29:52.027Z,25.76
2023-07-25T13:32:28.040Z,25.94
2023-07-25T13:35:15.500Z,25.78
2023-07-25T13:37:49.829Z,25.54
2023-07-25T13:40:36.961Z,25.41
2023-07-25T13:43:10.011Z,25.78
2023-07-25T13:45:56.923Z,26.24
2023-07-25T13:48:30.024Z,26.55
2023-07-25T13:51:16.920Z,26.52
2023-07-25T13:53:50.009Z,26.43
2023-07-25T13:56:38.716Z,26.57
2023-07-25T13:59:12.961Z,26.84
2023-07-25T14:02:00.936Z,27.05
2023-07-25T14:04:36.728Z,26.64
2023-07-25T14:07:23.900Z,26.21
2023-07-25T14:09:57.011Z,25.38
2023-07-25T14:12:43.863Z,24.67
2023-07-25T14:15:18.576Z,24.26
2023-07-25T14:18:07.906Z,24.15
2023-07-25T14:20:41.923Z,24.75
2023-07-25T14:23:28.861Z,25.02
2023-07-25T14:26:02.270Z,25.31
2023-07-25T14:28:49.986Z,25.69
2023-07-25T14:31:24.019Z,25.70
2023-07-25T14:34:11.009Z,25.41
2023-07-25T14:36:45.052Z,24.86
2023-07-25T14:39:32.083Z,24.67
2023-07-25T14:42:06.041Z,24.59
2023-07-25T14:44:53.148Z,24.26
2023-07-25T14:47:27.067Z,24.19
2023-07-25T14:50:13.862Z,23.87
2023-07-25T14:52:47.932Z,23.68
2023-07-25T14:55:34.915Z,23.44
2023-07-25T14:58:08.915Z,23.18
2023-07-25T15:00:55.844Z,22.90
2023-07-25T15:03:30.540Z,22.70
2023-07-25T15:06:24.703Z,22.68
2023-07-25T15:09:18.740Z,22.50
2023-07-25T15:12:06.774Z,22.53
2023-07-25T15:14:40.471Z,22.57
2023-07-25T15:17:28.793Z,22.55
2023-07-25T15:20:11.864Z,22.87
2023-07-25T15:22:58.731Z,23.19
2023-07-25T15:25:32.790Z,23.38
2023-07-25T15:28:19.730Z,23.43
2023-07-25T15:30:56.568Z,23.26
2023-07-25T15:33:44.776Z,23.30
2023-07-25T15:36:18.797Z,23.09
2023-07-25T15:39:05.641Z,23.04
2023-07-25T15:41:38.830Z,22.98
2023-07-25T15:44:26.676Z,22.87
2023-07-25T15:47:06.261Z,22.70
2023-07-25T15:49:53.660Z,22.53
2023-07-25T15:52:26.779Z,22.31
2023-07-25T15:55:13.634Z,22.25
2023-07-25T15:57:48.185Z,22.15
2023-07-25T16:00:34.678Z,21.86
2023-07-25T16:03:07.850Z,21.64
2023-07-25T16:06:01.729Z,21.58
2023-07-25T16:08:55.589Z,21.54
2023-07-25T16:11:42.596Z,21.49
2023-07-25T16:14:15.725Z,21.41
2023-07-25T16:17:04.023Z,21.35
2023-07-25T16:19:37.675Z,21.27
2023-07-25T16:22:24.591Z,21.12
2023-07-25T16:24:57.739Z,21.02
2023-07-25T16:27:44.601Z,20.95
2023-07-25T16:30:18.629Z,20.87
2023-07-25T16:33:05.630Z,20.81
2023-07-25T16:35:39.680Z,20.77
2023-07-25T16:38:26.579Z,20.71
2023-07-25T16:40:59.632Z,20.71
2023-07-25T16:43:46.531Z,20.66
2023-07-25T16:46:19.673Z,20.62
2023-07-25T16:49:06.556Z,20.57
2023-07-25T16:51:39.655Z,20.56
2023-07-25T16:54:27.521Z,20.58
2023-07-25T16:57:00.559Z,20.59
2023-07-25T16:59:47.612Z,20.59
2023-07-25T17:02:21.579Z,20.59
2023-07-25T17:05:11.818Z,20.60
2023-07-25T17:07:45.713Z,20.59
2023-07-25T17:10:32.500Z,20.57
2023-07-25T17:13:05.624Z,20.54
2023-07-25T17:15:52.706Z,20.46
2023-07-25T17:18:28.379Z,20.37
2023-07-25T17:21:21.009Z,20.28
2023-07-25T17:24:04.761Z,20.22
2023-07-25T17:26:51.447Z,20.21
2023-07-25T17:29:24.549Z,20.20
2023-07-25T17:32:11.445Z,20.16
2023-07-25T17:34:44.478Z,20.05
2023-07-25T17:37:31.455Z,19.93
2023-07-25T17:40:05.044Z,19.83
2023-07-25T17:42:52.469Z,19.71
2023-07-25T17:45:26.596Z,19.66
2023-07-25T17:48:13.500Z,19.63
2023-07-25T17:50:47.441Z,19.58
2023-07-25T17:53:34.380Z,19.52
2023-07-25T17:56:08.444Z,19.49
2023-07-25T17:58:55.441Z,19.43
2023-07-25T18:01:35.774Z,19.36
2023-07-25T18:04:16.380Z,19.32
2023-07-25T18:07:10.424Z,19.26
2023-07-25T18:09:57.387Z,19.20
2023-07-25T18:12:30.437Z,19.16
2023-07-25T18:15:18.323Z,19.14
2023-07-25T18:17:52.602Z,19.10
2023-07-25T18:20:39.713Z,19.04
2023-07-25T18:23:14.289Z,19.04
2023-07-25T18:26:06.251Z,19.02
2023-07-25T18:28:39.506Z,19.00
2023-07-25T18:31:26.329Z,18.96
2023-07-25T18:34:06.680Z,18.88
2023-07-25T18:36:47.448Z,18.82
2023-07-25T18:39:27.401Z,18.77
2023-07-25T18:42:07.271Z,18.71
2023-07-25T18:44:47.392Z,18.64
2023-07-25T18:47:34.383Z,18.56
2023-07-25T18:50:16.594Z,18.53
2023-07-25T18:52:56.339Z,18.49
2023-07-25T18:55:36.386Z,18.46
2023-07-25T18:58:17.838Z,18.41
2023-07-25T19:00:58.476Z,18.37
2023-07-25T19:03:38.271Z,18.35
2023-07-25T19:06:18.282Z,18.34
2023-07-25T19:09:05.188Z,18.29
2023-07-25T19:11:38.286Z,18.22
2023-07-25T19:14:25.237Z,18.17
2023-07-25T19:17:00.917Z,18.13
2023-07-25T19:19:50.179Z,18.12
2023-07-25T19:22:23.327Z,18.11
2023-07-25T19:25:10.172Z,18.08
2023-07-25T19:27:45.780Z,18.05
2023-07-25T19:30:34.263Z,18.01
2023-07-25T19:33:08.373Z,17.98
2023-07-25T19:36:04.250Z,17.98
2023-07-25T19:38:38.321Z,17.96
2023-07-25T19:41:26.289Z,17.92
2023-07-25T19:44:00.208Z,17.91
2023-07-25T19:46:47.145Z,17.89
2023-07-25T19:49:21.438Z,17.89
2023-07-25T19:52:08.220Z,17.92
2023-07-25T19:54:42.379Z,17.92
2023-07-25T19:57:29.555Z,17.89
2023-07-25T20:00:03.270Z,17.89
2023-07-25T20:02:50.276Z,17.93
2023-07-25T20:05:24.523Z,17.97
2023-07-25T20:08:11.293Z,17.99
2023-07-25T20:10:45.204Z,17.98
2023-07-25T20:13:32.162Z,17.96
2023-07-25T20:16:09.340Z,17.96
2023-07-25T20:18:56.048Z,17.97
2023-07-25T20:21:30.211Z,17.99
2023-07-25T20:24:19.087Z,17.99
2023-07-25T20:26:54.663Z,17.97
2023-07-25T20:29:42.227Z,17.95
2023-07-25T20:32:17.477Z,17.97
2023-07-25T20:35:04.173Z,17.95
2023-07-25T20:37:38.075Z,17.89
2023-07-25T20:40:25.085Z,17.88
2023-07-25T20:42:58.073Z,17.88
2023-07-25T20:45:45.008Z,17.89
2023-07-25T20:48:19.101Z,17.86
2023-07-25T20:51:07.959Z,17.84
2023-07-25T20:53:43.487Z,17.82
2023-07-25T20:56:30.339Z,17.83
2023-07-25T20:59:04.105Z,17.85
2023-07-25T21:01:51.490Z,17.89
2023-07-25T21:04:28.301Z,17.90
2023-07-25T21:07:23.084Z,17.88
2023-07-25T21:10:17.050Z,17.84
2023-07-25T21:13:03.909Z,17.83
2023-07-25T21:15:37.039Z,17.86
2023-07-25T21:18:24.083Z,17.88
2023-07-25T21:20:59.367Z,17.87
2023-07-25T21:23:46.958Z,17.86
2023-07-25T21:26:21.031Z,17.88
2023-07-25T21:29:08.035Z,17.90
2023-07-25T21:31:42.166Z,17.93
2023-07-25T21:34:28.951Z,17.95
2023-07-25T21:37:03.065Z,17.94
2023-07-25T21:39:50.082Z,17.96
2023-07-25T21:42:24.089Z,17.96
2023-07-25T21:45:10.992Z,17.97
2023-07-25T21:47:45.031Z,17.97
2023-07-25T21:50:31.911Z,17.96
2023-07-25T21:53:06.048Z,17.93
2023-07-25T21:55:52.946Z,17.96
2023-07-25T21:58:26.966Z,17.98
2023-07-25T22:01:13.892Z,17.99
2023-07-25T22:03:47.285Z,17.98
2023-07-25T22:06:41.086Z,17.97
2023-07-25T22:09:34.851Z,17.95
2023-07-25T22:12:21.789Z,17.92
2023-07-25T22:14:54.995Z,17.91
2023-07-25T22:17:41.867Z,17.89
2023-07-25T22:20:16.006Z,17.87
2023-07-25T22:23:02.808Z,17.84
2023-07-25T22:25:38.968Z,17.83
2023-07-25T22:28:26.074Z,17.84
2023-07-25T22:30:59.792Z,17.84
2023-07-25T22:33:46.805Z,17.84
2023-07-25T22:36:20.915Z,17.83
2023-07-25T22:39:07.817Z,17.83
2023-07-25T22:41:40.926Z,17.84
2023-07-25T22:44:27.810Z,17.82
2023-07-25T22:47:01.829Z,17.82
2023-07-25T22:49:48.705Z,17.79
2023-07-25T22:52:23.660Z,17.79
2023-07-25T22:55:10.771Z,17.80
2023-07-25T22:57:44.377Z,17.82
2023-07-25T23:00:31.790Z,17.80
2023-07-25T23:03:05.872Z,17.78
2023-07-25T23:05:52.807Z,17.81
2023-07-25T23:08:27.741Z,17.80
2023-07-25T23:11:15.161Z,17.79
2023-07-25T23:13:48.764Z,17.77
2023-07-25T23:16:35.777Z,17.74
2023-07-25T23:19:09.788Z,17.74
2023-07-25T23:21:59.042Z,17.71
2023-07-25T23:24:32.781Z,17.69
2023-07-25T23:27:19.653Z,17.69
2023-07-25T23:29:52.744Z,17.66
2023-07-25T23:32:41.209Z,17.63
2023-07-25T23:35:15.665Z,17.64
2023-07-25T23:38:04.665Z,17.63
2023-07-25T23:40:38.639Z,17.63
2023-07-25T23:43:25.585Z,17.61
2023-07-25T23:45:58.774Z,17.57
2023-07-25T23:48:45.679Z,17.55
2023-07-25T23:51:19.897Z,17.55
2023-07-25T23:54:07.630Z,17.54
2023-07-25T23:56:42.245Z,17.51
2023-07-25T23:59:29.668Z,17.49
